Aviation Digital Data Service (ADDS)

Output produced by METARs form (0516 UTC 16 February 2019)
found at http://www.aviationweather.gov/metar/data/
 
METAR text: DNKN 152200Z 04005KT 6000 NSC 18/01 Q1021 NOSIG
Conditions at: DNKN (KANO/MALLAM AMIN, NG) observed 2200 UTC 15 February 2019
Temperature: 18.0°C (64°F)
Dewpoint: 1.0°C (34°F) [RH = 32%]
Pressure (altimeter): 30.15 inches Hg (1021.0 mb)
Winds: from the NE (40 degrees) at 6 MPH (5 knots; 2.6 m/s)
Visibility: 4 miles ( 6 km)
Ceiling: at least 12,000 feet AGL
Clouds: sky clear below 12,000 feet AGL
Weather: no significant weather observed at this time

METAR text: DNKN 151600Z 05012KT 2500 HZ NSC 27/M02 Q1018 NOSIG
Conditions at: DNKN (KANO/MALLAM AMIN, NG) observed 1600 UTC 15 February 2019
Temperature: 27.0°C (81°F)
Dewpoint: -2.0°C (28°F) [RH = 15%]
Pressure (altimeter): 30.06 inches Hg (1018.0 mb)
Winds: from the NE (50 degrees) at 14 MPH (12 knots; 6.2 m/s)
Visibility: 1.55 miles (2.49 km)
Ceiling: at least 12,000 feet AGL
Clouds: sky clear below 12,000 feet AGL
Weather: HZ  (haze)

METAR text: DNKN 151300Z 05018KT 2500 HZ NSC 25/M01 Q1020 NOSIG
Conditions at: DNKN (KANO/MALLAM AMIN, NG) observed 1300 UTC 15 February 2019
Temperature: 25.0°C (77°F)
Dewpoint: -1.0°C (30°F) [RH = 18%]
Pressure (altimeter): 30.12 inches Hg (1020.0 mb)
Winds: from the NE (50 degrees) at 21 MPH (18 knots; 9.3 m/s)
Visibility: 1.55 miles (2.49 km)
Ceiling: at least 12,000 feet AGL
Clouds: sky clear below 12,000 feet AGL
Weather: HZ  (haze)